Terminal Aerodrome Forecast
Issued by NWS

Home | Current Version | Previous Version | Text Only | Print | Product List | Glossary On
Versions: 1 2 3 4 5 6 7 8 9 10 11 12 13
830
FTUS45 KABQ 230533
TAFSAF
TAF
KSAF 230533Z 2306/2406 36008KT P6SM FEW150
     FM231400 36012G20KT P6SM FEW150
     FM231800 26010KT P6SM FEW150
     FM232100 13022G32KT P6SM SCT060
     FM240300 14014G22KT P6SM SCT050=

USA.gov is the U.S. government's official web portal to all federal, state and local government web resources and services.